CSL Assiniboine — VCKQ — position and weather

sailwx.info

Track history (hours):
 
Tides and Currents Weather Stations Pressure Air Temp Water Temp Dewpoint Dewpoint Depression Visibility Wind Speed Wind Dir Waves Ship Positions

CSL Assiniboine

Last reported at 2017-Sep-17 01:54 UTC. Time now 2017-Sep-20 02:05 UTC.
Position N 45°27' W 083°15'.

Length 225 m; draft 8.9 m.

Type: Cargo ship. MMSI: 316001633.

Date/timePositionNaut miles runAvg speedWind from/ knotsBaromVisibWave heightAir tempDewpointWater temp
2017-Sep-17 01:54N 45°27' W 083°15'410.6
2017-Sep-17 01:30N 45°30' W 083°19'510.6
2017-Sep-17 01:00N 45°34' W 083°24'510.6
2017-Sep-17 00:30N 45°38' W 083°29'510.6
2017-Sep-17 00:00N 45°42' W 083°34'510.5
2017-Sep-16 23:30N 45°46' W 083°39'1210.4
2017-Sep-16 22:22N 45°54' W 083°51'4 9.6
2017-Sep-16 21:58N 45°58' W 083°54'4 9.2
2017-Sep-16 21:30N 46°02' W 083°55'338 7.5
2017-Sep-15 00:43N 46°42' W 092°01'0 0.0
2017-Sep-15 00:30N 46°42' W 092°01'0 0.0
2017-Sep-15 00:00N 46°42' W 092°01'0 0.0
2017-Sep-14 23:30N 46°42' W 092°01'0 0.0
2017-Sep-14 23:00N 46°42' W 092°01'0 0.0
2017-Sep-14 22:30N 46°42' W 092°01'0 0.0
2017-Sep-14 22:00N 46°42' W 092°01'0 0.0
2017-Sep-14 21:31N 46°42' W 092°01'0 0.0
2017-Sep-14 21:01N 46°42' W 092°01'0 0.0
2017-Sep-14 20:31N 46°42' W 092°01'0 0.0
2017-Sep-14 20:01N 46°42' W 092°01'0 0.0
2017-Sep-14 19:30N 46°42' W 092°01'0 0.0
2017-Sep-14 19:01N 46°42' W 092°01'0 0.0
2017-Sep-14 18:31N 46°42' W 092°01'0 0.0
2017-Sep-14 18:01N 46°42' W 092°01'0 0.0
2017-Sep-14 17:30N 46°42' W 092°01'0 0.0
2017-Sep-14 17:01N 46°42' W 092°01'0 0.0
2017-Sep-14 16:30N 46°42' W 092°01'0 0.0
2017-Sep-14 16:00N 46°42' W 092°01'0 0.1
2017-Sep-14 15:30N 46°42' W 092°01'1 1.5
2017-Sep-14 15:00N 46°43' W 092°01'2 4.3
2017-Sep-14 14:31N 46°45' W 091°59'0 0.6
2017-Sep-14 13:57N 46°44' W 091°60'0 0.1
2017-Sep-14 13:30N 46°44' W 091°60'0 0.0
2017-Sep-14 12:57N 46°44' W 091°60'0 0.0
2017-Sep-14 12:27N 46°44' W 091°60'0 0.0
2017-Sep-14 12:00N 46°44' W 091°60'0 0.0
2017-Sep-14 11:27N 46°44' W 091°60'0 0.0
2017-Sep-14 10:45N 46°44' W 091°60'0 0.0
2017-Sep-14 10:30N 46°44' W 091°60'0 0.0
2017-Sep-14 10:00N 46°44' W 091°60'0 0.0
2017-Sep-14 09:30N 46°44' W 091°60'0 0.0
2017-Sep-14 09:00N 46°44' W 091°60'0 0.0
2017-Sep-14 08:30N 46°44' W 091°60'0 0.0
2017-Sep-14 08:00N 46°44' W 091°60'0 0.0
2017-Sep-14 07:30N 46°44' W 091°60'0 0.0
2017-Sep-14 07:00N 46°44' W 091°60'0 0.0
2017-Sep-14 06:30N 46°44' W 091°60'0 0.0
2017-Sep-14 06:00N 46°44' W 091°60'0 0.0
2017-Sep-14 05:30N 46°44' W 091°60'0 0.0
2017-Sep-14 05:00N 46°44' W 091°60'0 0.0
2017-Sep-14 04:30N 46°44' W 091°60'0 0.0
2017-Sep-14 03:51N 46°44' W 091°60'0 0.0
2017-Sep-14 03:24N 46°44' W 091°60'0 0.0
2017-Sep-14 02:54N 46°44' W 091°60'0 0.1
2017-Sep-14 02:21N 46°44' W 091°60'0 0.0
2017-Sep-14 01:54N 46°44' W 091°60'0 0.0
2017-Sep-14 01:24N 46°44' W 091°60'0 0.0
2017-Sep-14 00:54N 46°44' W 091°60'0 0.1
2017-Sep-14 00:24N 46°44' W 091°60'0 0.1
2017-Sep-13 23:51N 46°45' W 091°60'0 0.0
2017-Sep-13 23:27N 46°45' W 091°60'0 0.0
2017-Sep-13 22:57N 46°45' W 091°60'0 0.0
2017-Sep-13 22:27N 46°45' W 091°60'0 0.0
2017-Sep-13 22:00N 46°45' W 091°60'0 0.0
2017-Sep-13 21:30N 46°45' W 091°60'0 0.0
2017-Sep-13 20:57N 46°45' W 091°60'0 0.0
2017-Sep-13 20:30N 46°45' W 091°60'0 0.0
2017-Sep-13 20:00N 46°45' W 091°60'0 0.0
2017-Sep-13 19:30N 46°45' W 091°60'0 0.0
2017-Sep-13 18:45N 46°45' W 091°60'0 0.0
2017-Sep-13 18:30N 46°45' W 091°60'0 0.0
2017-Sep-13 18:00N 46°45' W 091°60'0 0.0
2017-Sep-13 17:30N 46°45' W 091°60'0 0.0
2017-Sep-13 17:00N 46°45' W 091°60'0 0.0
2017-Sep-13 16:18N 46°45' W 091°60'0 0.0
2017-Sep-13 15:48N 46°45' W 091°60'0 0.0
2017-Sep-13 14:45N 46°45' W 091°60'0 0.0
2017-Sep-13 14:21N 46°45' W 091°60'0 0.0
2017-Sep-13 14:00N 46°45' W 091°60'0 0.0
2017-Sep-13 13:21N 46°45' W 091°60'0 0.0
2017-Sep-13 12:51N 46°45' W 091°60'0 0.0
2017-Sep-13 12:21N 46°45' W 091°60'0 0.0
2017-Sep-13 11:55N 46°45' W 091°60'0 0.0
2017-Sep-13 11:30N 46°45' W 091°60'0 0.1
2017-Sep-13 11:01N 46°45' W 091°60'0 0.1
2017-Sep-13 10:31N 46°45' W 091°60'0 0.0
2017-Sep-13 10:00N 46°45' W 091°60'0 0.1
2017-Sep-13 09:31N 46°45' W 091°60'0 0.0
2017-Sep-13 09:01N 46°45' W 091°60'0 0.0
2017-Sep-13 08:31N 46°45' W 091°60'0 0.0
2017-Sep-13 08:00N 46°45' W 091°60'0 0.0
2017-Sep-13 07:30N 46°45' W 091°60'0 0.0
2017-Sep-13 07:01N 46°45' W 091°60'0 0.0
2017-Sep-13 06:31N 46°45' W 091°60'0 0.1
2017-Sep-13 06:01N 46°45' W 091°60'0 0.0
2017-Sep-13 05:31N 46°45' W 091°60'0 0.1
2017-Sep-13 05:01N 46°45' W 091°59'0 0.1
2017-Sep-13 04:30N 46°45' W 091°59'0 0.1
2017-Sep-13 04:00N 46°45' W 091°59'0 0.6
2017-Sep-13 03:30N 46°45' W 091°59'4 7.3
2017-Sep-13 03:00N 46°45' W 091°54'611.0
2017-Sep-13 02:30N 46°48' W 091°47'611.1
2017-Sep-13 02:00N 46°50' W 091°39'14211.0
2017-Sep-12 13:00N 47°30' W 088°18'204 8.4 240 / 131017.010.8 17.0
2017-Sep-11 12:46N 45°57' W 083°54'710.9
2017-Sep-11 12:08N 45°51' W 083°49'111.2
2017-Sep-11 12:00N 45°50' W 083°47'611.2
2017-Sep-11 11:30N 45°46' W 083°43'611.2
2017-Sep-11 11:00N 45°41' W 083°38'511.0
2017-Sep-11 10:30N 45°37' W 083°34'611.0
2017-Sep-11 10:00N 45°32' W 083°29'511.1
2017-Sep-11 09:31N 45°28' W 083°25'611.1
2017-Sep-11 09:00N 45°23' W 083°20'611.3
2017-Sep-11 08:29N 45°18' W 083°16'  
2017-Sep-07 02:52N 45°14' W 074°09'4 7.2
2017-Sep-07 02:19N 45°13' W 074°03'2 7.5
2017-Sep-07 02:00N 45°14' W 073°60'  
Track history (hours):
 
Tides and Currents Weather Stations Pressure Air Temp Water Temp Dewpoint Dewpoint Depression Visibility Wind Speed Wind Dir Waves Ship Positions

CSL Assiniboine

Last reported at 2017-Sep-17 01:54 UTC. Time now 2017-Sep-20 02:05 UTC.
Position N 45°27' W 083°15'.

Length 225 m; draft 8.9 m.

Type: Cargo ship. MMSI: 316001633.

Date/timePositionNaut miles runAvg speedWind from/ knotsBaromVisibWave heightAir tempDewpointWater temp
2017-Sep-17 01:54N 45°27' W 083°15'410.6
2017-Sep-17 01:30N 45°30' W 083°19'510.6
2017-Sep-17 01:00N 45°34' W 083°24'510.6
2017-Sep-17 00:30N 45°38' W 083°29'510.6
2017-Sep-17 00:00N 45°42' W 083°34'510.5
2017-Sep-16 23:30N 45°46' W 083°39'1210.4
2017-Sep-16 22:22N 45°54' W 083°51'4 9.6
2017-Sep-16 21:58N 45°58' W 083°54'4 9.2
2017-Sep-16 21:30N 46°02' W 083°55'338 7.5
2017-Sep-15 00:43N 46°42' W 092°01'0 0.0
2017-Sep-15 00:30N 46°42' W 092°01'0 0.0
2017-Sep-15 00:00N 46°42' W 092°01'0 0.0
2017-Sep-14 23:30N 46°42' W 092°01'0 0.0
2017-Sep-14 23:00N 46°42' W 092°01'0 0.0
2017-Sep-14 22:30N 46°42' W 092°01'0 0.0
2017-Sep-14 22:00N 46°42' W 092°01'0 0.0
2017-Sep-14 21:31N 46°42' W 092°01'0 0.0
2017-Sep-14 21:01N 46°42' W 092°01'0 0.0
2017-Sep-14 20:31N 46°42' W 092°01'0 0.0
2017-Sep-14 20:01N 46°42' W 092°01'0 0.0
2017-Sep-14 19:30N 46°42' W 092°01'0 0.0
2017-Sep-14 19:01N 46°42' W 092°01'0 0.0
2017-Sep-14 18:31N 46°42' W 092°01'0 0.0
2017-Sep-14 18:01N 46°42' W 092°01'0 0.0
2017-Sep-14 17:30N 46°42' W 092°01'0 0.0
2017-Sep-14 17:01N 46°42' W 092°01'0 0.0
2017-Sep-14 16:30N 46°42' W 092°01'0 0.0
2017-Sep-14 16:00N 46°42' W 092°01'0 0.1
2017-Sep-14 15:30N 46°42' W 092°01'1 1.5
2017-Sep-14 15:00N 46°43' W 092°01'2 4.3
2017-Sep-14 14:31N 46°45' W 091°59'0 0.6
2017-Sep-14 13:57N 46°44' W 091°60'0 0.1
2017-Sep-14 13:30N 46°44' W 091°60'0 0.0
2017-Sep-14 12:57N 46°44' W 091°60'0 0.0
2017-Sep-14 12:27N 46°44' W 091°60'0 0.0
2017-Sep-14 12:00N 46°44' W 091°60'0 0.0
2017-Sep-14 11:27N 46°44' W 091°60'0 0.0
2017-Sep-14 10:45N 46°44' W 091°60'0 0.0
2017-Sep-14 10:30N 46°44' W 091°60'0 0.0
2017-Sep-14 10:00N 46°44' W 091°60'0 0.0
2017-Sep-14 09:30N 46°44' W 091°60'0 0.0
2017-Sep-14 09:00N 46°44' W 091°60'0 0.0
2017-Sep-14 08:30N 46°44' W 091°60'0 0.0
2017-Sep-14 08:00N 46°44' W 091°60'0 0.0
2017-Sep-14 07:30N 46°44' W 091°60'0 0.0
2017-Sep-14 07:00N 46°44' W 091°60'0 0.0
2017-Sep-14 06:30N 46°44' W 091°60'0 0.0
2017-Sep-14 06:00N 46°44' W 091°60'0 0.0
2017-Sep-14 05:30N 46°44' W 091°60'0 0.0
2017-Sep-14 05:00N 46°44' W 091°60'0 0.0
2017-Sep-14 04:30N 46°44' W 091°60'0 0.0
2017-Sep-14 03:51N 46°44' W 091°60'0 0.0
2017-Sep-14 03:24N 46°44' W 091°60'0 0.0
2017-Sep-14 02:54N 46°44' W 091°60'0 0.1
2017-Sep-14 02:21N 46°44' W 091°60'0 0.0
2017-Sep-14 01:54N 46°44' W 091°60'0 0.0
2017-Sep-14 01:24N 46°44' W 091°60'0 0.0
2017-Sep-14 00:54N 46°44' W 091°60'0 0.1
2017-Sep-14 00:24N 46°44' W 091°60'0 0.1
2017-Sep-13 23:51N 46°45' W 091°60'0 0.0
2017-Sep-13 23:27N 46°45' W 091°60'0 0.0
2017-Sep-13 22:57N 46°45' W 091°60'0 0.0
2017-Sep-13 22:27N 46°45' W 091°60'0 0.0
2017-Sep-13 22:00N 46°45' W 091°60'0 0.0
2017-Sep-13 21:30N 46°45' W 091°60'0 0.0
2017-Sep-13 20:57N 46°45' W 091°60'0 0.0
2017-Sep-13 20:30N 46°45' W 091°60'0 0.0
2017-Sep-13 20:00N 46°45' W 091°60'0 0.0
2017-Sep-13 19:30N 46°45' W 091°60'0 0.0
2017-Sep-13 18:45N 46°45' W 091°60'0 0.0
2017-Sep-13 18:30N 46°45' W 091°60'0 0.0
2017-Sep-13 18:00N 46°45' W 091°60'0 0.0
2017-Sep-13 17:30N 46°45' W 091°60'0 0.0
2017-Sep-13 17:00N 46°45' W 091°60'0 0.0
2017-Sep-13 16:18N 46°45' W 091°60'0 0.0
2017-Sep-13 15:48N 46°45' W 091°60'0 0.0
2017-Sep-13 14:45N 46°45' W 091°60'0 0.0
2017-Sep-13 14:21N 46°45' W 091°60'0 0.0
2017-Sep-13 14:00N 46°45' W 091°60'0 0.0
2017-Sep-13 13:21N 46°45' W 091°60'0 0.0
2017-Sep-13 12:51N 46°45' W 091°60'0 0.0
2017-Sep-13 12:21N 46°45' W 091°60'0 0.0
2017-Sep-13 11:55N 46°45' W 091°60'0 0.0
2017-Sep-13 11:30N 46°45' W 091°60'0 0.1
2017-Sep-13 11:01N 46°45' W 091°60'0 0.1
2017-Sep-13 10:31N 46°45' W 091°60'0 0.0
2017-Sep-13 10:00N 46°45' W 091°60'0 0.1
2017-Sep-13 09:31N 46°45' W 091°60'0 0.0
2017-Sep-13 09:01N 46°45' W 091°60'0 0.0
2017-Sep-13 08:31N 46°45' W 091°60'0 0.0
2017-Sep-13 08:00N 46°45' W 091°60'0 0.0
2017-Sep-13 07:30N 46°45' W 091°60'0 0.0
2017-Sep-13 07:01N 46°45' W 091°60'0 0.0
2017-Sep-13 06:31N 46°45' W 091°60'0 0.1
2017-Sep-13 06:01N 46°45' W 091°60'0 0.0
2017-Sep-13 05:31N 46°45' W 091°60'0 0.1
2017-Sep-13 05:01N 46°45' W 091°59'0 0.1
2017-Sep-13 04:30N 46°45' W 091°59'0 0.1
2017-Sep-13 04:00N 46°45' W 091°59'0 0.6
2017-Sep-13 03:30N 46°45' W 091°59'4 7.3
2017-Sep-13 03:00N 46°45' W 091°54'611.0
2017-Sep-13 02:30N 46°48' W 091°47'611.1
2017-Sep-13 02:00N 46°50' W 091°39'14211.0
2017-Sep-12 13:00N 47°30' W 088°18'204 8.4 240 / 131017.010.8 17.0
2017-Sep-11 12:46N 45°57' W 083°54'710.9
2017-Sep-11 12:08N 45°51' W 083°49'111.2
2017-Sep-11 12:00N 45°50' W 083°47'611.2
2017-Sep-11 11:30N 45°46' W 083°43'611.2
2017-Sep-11 11:00N 45°41' W 083°38'511.0
2017-Sep-11 10:30N 45°37' W 083°34'611.0
2017-Sep-11 10:00N 45°32' W 083°29'511.1
2017-Sep-11 09:31N 45°28' W 083°25'611.1
2017-Sep-11 09:00N 45°23' W 083°20'611.3
2017-Sep-11 08:29N 45°18' W 083°16'  
2017-Sep-07 02:52N 45°14' W 074°09'4 7.2
2017-Sep-07 02:19N 45°13' W 074°03'2 7.5
2017-Sep-07 02:00N 45°14' W 073°60'  

Dump ship's entire track history